createdAt,value
2017-10-11T00:00:59.600Z,12.69
2017-10-11T00:03:29.383Z,12.68
2017-10-11T00:05:59.374Z,12.68
2017-10-11T00:08:29.123Z,12.70
2017-10-11T00:10:58.850Z,12.71
2017-10-11T00:13:28.605Z,12.73
2017-10-11T00:15:58.174Z,12.74
2017-10-11T00:18:27.916Z,12.73
2017-10-11T00:20:57.671Z,12.73
2017-10-11T00:23:27.418Z,12.69
2017-10-11T00:25:57.174Z,12.69
2017-10-11T00:28:26.934Z,12.62
2017-10-11T00:30:56.678Z,12.57
2017-10-11T00:33:26.420Z,12.51
2017-10-11T00:35:56.174Z,12.50
2017-10-11T00:38:25.904Z,12.51
2017-10-11T00:40:55.669Z,12.50
2017-10-11T00:43:25.404Z,12.51
2017-10-11T00:45:55.143Z,12.52
2017-10-11T00:48:24.912Z,12.54
2017-10-11T00:50:54.666Z,12.61
2017-10-11T00:53:24.403Z,12.64
2017-10-11T00:55:53.802Z,12.65
2017-10-11T00:58:23.244Z,12.65
2017-10-11T01:00:53.003Z,12.66
2017-10-11T01:03:22.747Z,12.66
2017-10-11T01:05:52.496Z,12.63
2017-10-11T01:08:22.230Z,12.60
2017-10-11T01:10:52.018Z,12.55
2017-10-11T01:13:21.735Z,12.60
2017-10-11T01:15:51.132Z,12.60
2017-10-11T01:18:20.865Z,12.59
2017-10-11T01:20:50.269Z,12.58
2017-10-11T01:23:19.848Z,12.54
2017-10-11T01:25:49.241Z,12.52
2017-10-11T01:28:18.652Z,12.51
2017-10-11T01:30:48.443Z,12.46
2017-10-11T01:33:17.857Z,12.49
2017-10-11T01:35:47.604Z,12.50
2017-10-11T01:38:17.009Z,12.51
2017-10-11T01:40:46.767Z,12.52
2017-10-11T01:43:16.163Z,12.52
2017-10-11T01:45:45.400Z,12.49
2017-10-11T01:48:14.791Z,12.49
2017-10-11T01:50:44.240Z,12.47
2017-10-11T01:53:13.638Z,12.46
2017-10-11T01:55:43.043Z,12.47
2017-10-11T01:58:13.053Z,12.47
2017-10-11T02:00:42.805Z,12.40
2017-10-11T02:03:12.570Z,12.35
2017-10-11T02:05:42.124Z,12.35
2017-10-11T02:08:11.678Z,12.36
2017-10-11T02:10:41.406Z,12.35
2017-10-11T02:13:11.020Z,12.40
2017-10-11T02:15:40.752Z,12.45
2017-10-11T02:18:10.295Z,12.47
2017-10-11T02:20:40.058Z,12.48
2017-10-11T02:23:09.805Z,12.48
2017-10-11T02:25:39.540Z,12.48
2017-10-11T02:28:08.978Z,12.52
2017-10-11T02:30:44.196Z,12.51
2017-10-11T02:33:19.763Z,12.51
2017-10-11T02:35:49.510Z,12.50
2017-10-11T02:38:19.243Z,12.45
2017-10-11T02:40:52.913Z,12.50
2017-10-11T02:43:22.640Z,12.47
2017-10-11T02:45:52.381Z,12.49
2017-10-11T02:48:25.835Z,12.40
2017-10-11T02:50:55.572Z,12.47
2017-10-11T02:53:25.339Z,12.49
2017-10-11T02:55:55.094Z,12.43
2017-10-11T02:58:24.823Z,12.48
2017-10-11T03:00:54.594Z,12.45
2017-10-11T03:03:24.350Z,12.49
2017-10-11T03:05:54.104Z,12.49
2017-10-11T03:08:23.846Z,12.44
2017-10-11T03:10:53.573Z,12.45
2017-10-11T03:13:23.320Z,12.46
2017-10-11T03:15:53.056Z,12.45
2017-10-11T03:18:22.810Z,12.44
2017-10-11T03:20:52.573Z,12.39
2017-10-11T03:23:22.360Z,12.36
2017-10-11T03:25:52.119Z,12.31
2017-10-11T03:28:21.849Z,12.31
2017-10-11T03:30:51.585Z,12.29
2017-10-11T03:33:21.332Z,12.25
2017-10-11T03:35:51.086Z,12.25
2017-10-11T03:38:20.823Z,12.22
2017-10-11T03:40:50.584Z,12.21
2017-10-11T03:43:20.326Z,12.12
2017-10-11T03:45:50.094Z,12.04
2017-10-11T03:48:19.828Z,11.97
2017-10-11T03:50:49.578Z,11.83
2017-10-11T03:53:19.337Z,11.70
2017-10-11T03:55:49.097Z,11.57
2017-10-11T03:58:18.853Z,11.37
2017-10-11T04:00:48.598Z,11.26
2017-10-11T04:03:18.356Z,11.17
2017-10-11T04:05:48.115Z,11.05
2017-10-11T04:08:17.916Z,10.92
2017-10-11T04:10:47.648Z,10.86
2017-10-11T04:13:17.898Z,10.77
2017-10-11T04:15:47.630Z,10.69
2017-10-11T04:18:17.182Z,10.61
2017-10-11T04:20:46.732Z,10.52
2017-10-11T04:23:16.327Z,10.45
2017-10-11T04:25:45.872Z,10.45
2017-10-11T04:28:15.580Z,10.39
2017-10-11T04:30:45.165Z,10.32
2017-10-11T04:33:15.397Z,10.29
2017-10-11T04:35:44.984Z,10.31
2017-10-11T04:38:15.237Z,10.26
2017-10-11T04:40:44.820Z,10.33
2017-10-11T04:43:14.573Z,10.48
2017-10-11T04:45:44.599Z,10.50
2017-10-11T04:48:14.227Z,10.56
2017-10-11T04:50:43.764Z,10.57
2017-10-11T04:53:13.509Z,10.62
2017-10-11T04:55:52.327Z,10.72
2017-10-11T04:58:23.858Z,10.75
2017-10-11T05:00:53.639Z,10.90
2017-10-11T05:03:23.408Z,10.97
2017-10-11T05:05:53.189Z,10.94
2017-10-11T05:08:22.939Z,10.93
2017-10-11T05:10:52.817Z,10.92
2017-10-11T05:13:23.148Z,11.05
2017-10-11T05:15:52.906Z,11.12
2017-10-11T05:18:22.691Z,11.16
2017-10-11T05:20:52.528Z,11.16
2017-10-11T05:23:22.335Z,11.18
2017-10-11T05:25:52.304Z,11.20
2017-10-11T05:28:22.065Z,11.27
2017-10-11T05:30:51.852Z,11.37
2017-10-11T05:33:21.669Z,11.38
2017-10-11T05:35:51.446Z,11.42
2017-10-11T05:38:21.417Z,11.49
2017-10-11T05:40:51.181Z,11.60
2017-10-11T05:43:21.008Z,11.73
2017-10-11T05:45:50.784Z,11.78
2017-10-11T05:48:20.629Z,11.76
2017-10-11T05:50:50.384Z,11.70
2017-10-11T05:53:20.235Z,11.71
2017-10-11T05:55:50.014Z,11.70
2017-10-11T05:58:26.908Z,11.66
2017-10-11T06:01:00.756Z,11.67
2017-10-11T06:03:32.035Z,11.68
2017-10-11T06:06:06.678Z,11.70
2017-10-11T06:08:44.465Z,11.74
2017-10-11T06:11:15.899Z,11.76
2017-10-11T06:13:47.518Z,11.86
2017-10-11T06:16:17.481Z,11.96
2017-10-11T06:18:47.433Z,12.08
2017-10-11T06:21:17.039Z,12.20
2017-10-11T06:23:46.780Z,12.49
2017-10-11T06:26:16.571Z,12.70
2017-10-11T06:28:46.598Z,13.01
2017-10-11T06:31:16.347Z,13.39
2017-10-11T06:33:46.143Z,13.81
2017-10-11T06:36:15.909Z,14.02
2017-10-11T06:38:45.683Z,14.19
2017-10-11T06:41:16.279Z,14.22
2017-10-11T06:43:46.102Z,14.19
2017-10-11T06:46:15.603Z,14.67
2017-10-11T06:48:45.062Z,15.73
2017-10-11T06:51:14.586Z,16.84
2017-10-11T06:53:44.768Z,17.74
2017-10-11T06:56:14.070Z,18.30
2017-10-11T06:58:43.426Z,18.90
2017-10-11T07:01:12.939Z,19.41
2017-10-11T07:03:43.422Z,20.17
2017-10-11T07:06:12.890Z,20.40
2017-10-11T07:08:43.373Z,21.25
2017-10-11T07:11:12.839Z,21.36
2017-10-11T07:13:42.369Z,22.00
2017-10-11T07:16:11.844Z,21.12
2017-10-11T07:18:42.483Z,22.30
2017-10-11T07:21:11.937Z,22.49
2017-10-11T07:23:41.392Z,21.57
2017-10-11T07:26:10.897Z,21.93
2017-10-11T07:28:40.427Z,22.12
2017-10-11T07:31:09.877Z,21.60
2017-10-11T07:33:39.438Z,23.12
2017-10-11T07:36:09.030Z,24.02
2017-10-11T07:38:38.559Z,24.29
2017-10-11T07:41:08.122Z,24.97
2017-10-11T07:43:37.636Z,24.76
2017-10-11T07:46:07.865Z,24.44
2017-10-11T07:48:37.218Z,25.23
2017-10-11T07:51:06.736Z,26.02
2017-10-11T07:53:36.270Z,25.11
2017-10-11T07:56:05.782Z,24.52
2017-10-11T07:58:35.456Z,27.01
2017-10-11T08:01:04.382Z,27.37
2017-10-11T08:03:34.765Z,27.95
2017-10-11T08:06:04.504Z,28.49
2017-10-11T08:08:34.314Z,27.85
2017-10-11T08:11:03.952Z,27.66
2017-10-11T08:13:33.614Z,29.00
2017-10-11T08:16:03.371Z,30.47
2017-10-11T08:18:33.268Z,31.86
2017-10-11T08:21:05.030Z,31.10
2017-10-11T08:23:34.852Z,31.01
2017-10-11T08:26:04.337Z,31.61
2017-10-11T08:28:34.399Z,31.61
2017-10-11T08:31:04.192Z,31.75
2017-10-11T08:33:33.877Z,31.18
2017-10-11T08:36:03.462Z,29.92
2017-10-11T08:38:33.041Z,30.10
2017-10-11T08:41:02.598Z,30.07
2017-10-11T08:43:33.395Z,29.95
2017-10-11T08:46:03.134Z,31.37
2017-10-11T08:48:33.084Z,31.35
2017-10-11T08:51:02.812Z,33.24
2017-10-11T08:53:34.851Z,33.56
2017-10-11T08:56:04.612Z,34.19
2017-10-11T08:58:34.590Z,34.84
2017-10-11T09:01:04.316Z,36.39
2017-10-11T09:03:36.999Z,34.76
2017-10-11T09:06:06.742Z,34.10
2017-10-11T09:08:36.042Z,34.15
2017-10-11T09:11:05.479Z,33.69
2017-10-11T09:13:35.114Z,35.83
2017-10-11T09:16:04.958Z,34.47
2017-10-11T09:18:34.554Z,35.82
2017-10-11T09:21:04.163Z,37.25
2017-10-11T09:23:34.506Z,35.18
2017-10-11T09:26:04.152Z,34.60
2017-10-11T09:28:33.737Z,34.62
2017-10-11T09:31:04.260Z,34.91
2017-10-11T09:33:33.608Z,33.77
2017-10-11T09:36:03.345Z,35.54
2017-10-11T09:38:33.729Z,35.76
2017-10-11T09:41:03.803Z,35.48
2017-10-11T09:43:33.455Z,34.66
2017-10-11T09:46:03.291Z,33.88
2017-10-11T09:48:33.058Z,33.40
2017-10-11T09:51:03.246Z,33.07
2017-10-11T09:53:33.787Z,32.84
2017-10-11T09:56:04.402Z,34.90
2017-10-11T09:58:34.163Z,33.47
2017-10-11T10:01:03.924Z,32.93
2017-10-11T10:03:34.286Z,33.33
2017-10-11T10:06:03.985Z,35.45
2017-10-11T10:08:33.690Z,35.62
2017-10-11T10:11:03.406Z,35.96
2017-10-11T10:13:34.033Z,36.07
2017-10-11T10:16:05.409Z,35.47
2017-10-11T10:18:35.490Z,37.00
2017-10-11T10:21:05.257Z,37.87
2017-10-11T10:23:34.970Z,36.51
2017-10-11T10:26:04.916Z,36.49
2017-10-11T10:28:34.702Z,37.06
2017-10-11T10:31:04.350Z,39.22
2017-10-11T10:33:34.095Z,39.77
2017-10-11T10:36:04.237Z,40.32
2017-10-11T10:38:35.023Z,41.19
2017-10-11T10:41:04.603Z,36.27
2017-10-11T10:43:34.390Z,38.39
2017-10-11T10:46:04.063Z,39.33
2017-10-11T10:48:34.060Z,40.32
2017-10-11T10:51:03.765Z,38.74
2017-10-11T10:53:33.270Z,36.80
2017-10-11T10:56:02.925Z,37.43
2017-10-11T10:58:32.547Z,35.28
2017-10-11T11:01:02.637Z,34.20
2017-10-11T11:03:32.363Z,37.41
2017-10-11T11:06:02.069Z,38.56
2017-10-11T11:08:31.722Z,38.08
2017-10-11T11:11:01.491Z,40.29
2017-10-11T11:13:31.239Z,41.15
2017-10-11T11:16:01.001Z,41.68
2017-10-11T11:18:30.655Z,37.81
2017-10-11T11:21:00.296Z,41.30
2017-10-11T11:23:29.963Z,40.67
2017-10-11T11:25:59.714Z,38.72
2017-10-11T11:28:29.660Z,37.69
2017-10-11T11:30:59.295Z,36.74
2017-10-11T11:33:31.654Z,37.77
2017-10-11T11:36:01.887Z,37.11
2017-10-11T11:38:31.566Z,35.73
2017-10-11T11:41:01.354Z,38.26
2017-10-11T11:43:30.866Z,39.14
2017-10-11T11:46:00.520Z,36.76
2017-10-11T11:48:30.099Z,34.30
2017-10-11T11:50:59.734Z,34.24
2017-10-11T11:53:29.380Z,31.74
2017-10-11T11:55:58.987Z,34.06
2017-10-11T11:58:28.576Z,35.50
2017-10-11T12:00:58.937Z,37.12
2017-10-11T12:03:28.600Z,37.73
2017-10-11T12:05:58.489Z,39.93
2017-10-11T12:08:28.170Z,37.00
2017-10-11T12:10:57.736Z,37.72
2017-10-11T12:13:27.390Z,37.97
2017-10-11T12:15:58.031Z,38.70
2017-10-11T12:18:27.675Z,39.09
2017-10-11T12:20:57.372Z,38.12
2017-10-11T12:23:26.995Z,39.01
2017-10-11T12:25:56.595Z,41.65
2017-10-11T12:28:26.097Z,41.17
2017-10-11T12:30:55.702Z,39.87
2017-10-11T12:33:25.346Z,39.73
2017-10-11T12:35:54.987Z,39.65
2017-10-11T12:38:24.913Z,38.38
2017-10-11T12:40:54.706Z,38.85
2017-10-11T12:43:24.446Z,39.39
2017-10-11T12:45:53.964Z,40.34
2017-10-11T12:48:23.506Z,42.12
2017-10-11T12:50:56.025Z,38.19
2017-10-11T12:53:25.788Z,37.09
2017-10-11T12:55:55.466Z,37.28
2017-10-11T12:58:24.920Z,38.49
2017-10-11T13:00:54.579Z,39.50
2017-10-11T13:03:24.231Z,38.50
2017-10-11T13:05:53.851Z,38.04
2017-10-11T13:08:23.407Z,37.52
2017-10-11T13:10:53.251Z,36.35
2017-10-11T13:13:23.129Z,35.41
2017-10-11T13:15:53.166Z,35.16
2017-10-11T13:18:22.810Z,35.67
2017-10-11T13:20:52.495Z,34.83
2017-10-11T13:23:22.037Z,36.26
2017-10-11T13:25:51.686Z,35.91
2017-10-11T13:28:21.408Z,35.92
2017-10-11T13:30:51.016Z,35.18
2017-10-11T13:33:20.683Z,36.79
2017-10-11T13:35:50.767Z,36.64
2017-10-11T13:38:20.469Z,37.57
2017-10-11T13:40:55.477Z,37.91
2017-10-11T13:43:26.095Z,38.56
2017-10-11T13:45:56.852Z,38.35
2017-10-11T13:48:26.291Z,37.39
2017-10-11T13:50:56.376Z,37.81
2017-10-11T13:53:25.926Z,39.13
2017-10-11T13:55:55.680Z,38.36
2017-10-11T13:58:25.156Z,38.42
2017-10-11T14:00:54.818Z,37.62
2017-10-11T14:03:24.327Z,37.75
2017-10-11T14:05:53.851Z,36.54
2017-10-11T14:08:23.247Z,36.61
2017-10-11T14:10:52.595Z,35.96
2017-10-11T14:13:22.058Z,35.47
2017-10-11T14:15:51.538Z,35.12
2017-10-11T14:18:21.018Z,33.35
2017-10-11T14:20:50.386Z,34.60
2017-10-11T14:23:24.335Z,33.15
2017-10-11T14:25:53.976Z,32.92
2017-10-11T14:28:23.163Z,31.47
2017-10-11T14:30:53.571Z,29.19
2017-10-11T14:33:22.780Z,27.63
2017-10-11T14:35:52.371Z,26.69
2017-10-11T14:38:21.939Z,25.82
2017-10-11T14:40:51.259Z,24.98
2017-10-11T14:43:20.551Z,24.43
2017-10-11T14:45:49.905Z,23.72
2017-10-11T14:48:19.230Z,23.30
2017-10-11T14:50:48.724Z,22.85
2017-10-11T14:53:18.916Z,22.99
2017-10-11T14:55:48.230Z,22.62
2017-10-11T14:58:17.686Z,22.54
2017-10-11T15:00:47.860Z,22.45
2017-10-11T15:03:17.269Z,22.32
2017-10-11T15:05:46.602Z,22.12
2017-10-11T15:08:16.008Z,22.06
2017-10-11T15:10:45.153Z,22.00
2017-10-11T15:13:18.538Z,21.91
2017-10-11T15:15:47.835Z,21.81
2017-10-11T15:18:19.346Z,21.61
2017-10-11T15:20:48.954Z,21.42
2017-10-11T15:23:18.274Z,21.36
2017-10-11T15:25:47.564Z,21.10
2017-10-11T15:28:16.884Z,20.94
2017-10-11T15:30:46.221Z,20.82
2017-10-11T15:33:15.492Z,20.64
2017-10-11T15:35:44.922Z,20.53
2017-10-11T15:38:14.644Z,20.24
2017-10-11T15:40:44.098Z,20.00
2017-10-11T15:43:13.428Z,19.86
2017-10-11T15:45:42.707Z,19.73
2017-10-11T15:48:12.077Z,19.51
2017-10-11T15:50:41.491Z,19.32
2017-10-11T15:53:11.410Z,19.08
2017-10-11T15:55:40.863Z,18.83
2017-10-11T15:58:10.175Z,18.62
2017-10-11T16:00:39.612Z,18.41
2017-10-11T16:03:08.589Z,18.16
2017-10-11T16:05:37.969Z,17.96
2017-10-11T16:08:07.295Z,17.69
2017-10-11T16:10:36.610Z,17.43
2017-10-11T16:13:06.118Z,17.18
2017-10-11T16:15:35.874Z,16.94
2017-10-11T16:18:05.657Z,16.67
2017-10-11T16:20:34.957Z,16.45
2017-10-11T16:23:05.253Z,16.22
2017-10-11T16:25:34.615Z,16.00
2017-10-11T16:28:03.863Z,15.81
2017-10-11T16:30:33.211Z,15.65
2017-10-11T16:33:02.586Z,15.45
2017-10-11T16:35:31.914Z,15.28
2017-10-11T16:38:01.327Z,15.25
2017-10-11T16:40:30.653Z,15.15
2017-10-11T16:43:01.110Z,14.98
2017-10-11T16:45:31.223Z,14.83
2017-10-11T16:48:00.535Z,14.65
2017-10-11T16:50:30.281Z,14.49
2017-10-11T16:52:59.714Z,14.32
2017-10-11T16:55:29.007Z,14.26
2017-10-11T16:57:59.187Z,14.17
2017-10-11T17:00:28.679Z,14.01
2017-10-11T17:02:58.118Z,13.87
2017-10-11T17:05:27.452Z,13.69
2017-10-11T17:07:56.917Z,13.55
2017-10-11T17:10:26.219Z,13.43
2017-10-11T17:12:55.610Z,13.31
2017-10-11T17:15:24.947Z,13.26
2017-10-11T17:17:54.273Z,13.17
2017-10-11T17:20:23.708Z,13.07
2017-10-11T17:22:53.100Z,13.03
2017-10-11T17:25:22.487Z,12.94
2017-10-11T17:27:54.256Z,12.87
2017-10-11T17:30:25.915Z,12.81
2017-10-11T17:32:55.830Z,12.81
2017-10-11T17:35:26.747Z,12.74
2017-10-11T17:37:56.530Z,12.66
2017-10-11T17:40:26.563Z,12.56
2017-10-11T17:42:56.290Z,12.45
2017-10-11T17:45:25.925Z,12.37
2017-10-11T17:47:55.634Z,12.37
2017-10-11T17:51:08.624Z,12.33
2017-10-11T17:53:38.571Z,12.16
2017-10-11T17:56:08.337Z,12.05
2017-10-11T17:58:39.429Z,11.94
2017-10-11T18:01:09.555Z,11.85
2017-10-11T18:03:39.170Z,11.83
2017-10-11T18:06:09.006Z,11.73
2017-10-11T18:08:38.777Z,11.68
2017-10-11T18:11:08.362Z,11.69
2017-10-11T18:13:37.916Z,11.63
2017-10-11T18:16:07.503Z,11.54
2017-10-11T18:18:37.236Z,11.44
2017-10-11T18:21:06.825Z,11.37
2017-10-11T18:23:36.489Z,11.32
2017-10-11T18:26:06.187Z,11.24
2017-10-11T18:28:35.774Z,11.16
2017-10-11T18:31:05.357Z,11.06
2017-10-11T18:33:35.119Z,11.03
2017-10-11T18:36:04.762Z,11.00
2017-10-11T18:38:34.404Z,10.99
2017-10-11T18:41:04.142Z,10.93
2017-10-11T18:43:33.990Z,10.85
2017-10-11T18:46:03.995Z,10.79
2017-10-11T18:48:33.839Z,10.72
2017-10-11T18:51:03.757Z,10.67
2017-10-11T18:53:33.663Z,10.62
2017-10-11T18:56:03.549Z,10.56
2017-10-11T18:58:33.380Z,10.52
2017-10-11T19:01:03.312Z,10.49
2017-10-11T19:03:33.156Z,10.45
2017-10-11T19:06:03.004Z,10.41
2017-10-11T19:08:32.956Z,10.42
2017-10-11T19:11:02.896Z,10.41
2017-10-11T19:13:32.787Z,10.39
2017-10-11T19:16:02.701Z,10.31
2017-10-11T19:18:32.324Z,10.32
2017-10-11T19:21:02.048Z,10.31
2017-10-11T19:23:31.795Z,10.37
2017-10-11T19:26:01.655Z,10.26
2017-10-11T19:28:31.497Z,10.19
2017-10-11T19:31:01.408Z,10.13
2017-10-11T19:33:31.178Z,10.08
2017-10-11T19:36:01.177Z,10.04
2017-10-11T19:38:31.067Z,10.01
2017-10-11T19:41:01.183Z,10.00
2017-10-11T19:43:31.069Z,9.93
2017-10-11T19:46:00.998Z,9.89
2017-10-11T19:48:30.823Z,9.85
2017-10-11T19:51:00.604Z,9.84
2017-10-11T19:53:31.203Z,9.84
2017-10-11T19:56:01.003Z,9.80
2017-10-11T19:58:30.571Z,9.77
2017-10-11T20:01:00.142Z,9.76
2017-10-11T20:03:29.728Z,9.69
2017-10-11T20:05:59.508Z,9.63
2017-10-11T20:08:29.241Z,9.68
2017-10-11T20:10:59.685Z,9.84
2017-10-11T20:13:30.038Z,9.91
2017-10-11T20:15:59.602Z,10.02
2017-10-11T20:18:29.335Z,10.14
2017-10-11T20:20:58.919Z,10.09
2017-10-11T20:23:28.623Z,10.09
2017-10-11T20:25:58.339Z,10.01
2017-10-11T20:28:29.649Z,9.88
2017-10-11T20:30:59.590Z,9.87
2017-10-11T20:33:29.390Z,9.76
2017-10-11T20:35:59.285Z,9.72
2017-10-11T20:38:29.097Z,9.63
2017-10-11T20:40:59.154Z,9.66
2017-10-11T20:43:29.018Z,9.63
2017-10-11T20:45:58.920Z,9.58
2017-10-11T20:48:28.625Z,9.52
2017-10-11T20:50:58.513Z,9.44
2017-10-11T20:53:28.363Z,9.38
2017-10-11T20:55:58.288Z,9.31
2017-10-11T20:58:28.235Z,9.27
2017-10-11T21:00:58.064Z,9.24
2017-10-11T21:03:27.907Z,9.24
2017-10-11T21:05:57.762Z,9.26
2017-10-11T21:08:27.656Z,9.17
2017-10-11T21:10:57.480Z,9.11
2017-10-11T21:13:27.258Z,9.04
2017-10-11T21:15:57.164Z,9.01
2017-10-11T21:18:27.063Z,8.99
2017-10-11T21:20:56.893Z,8.99
2017-10-11T21:23:26.737Z,8.95
2017-10-11T21:25:56.592Z,8.96
2017-10-11T21:28:30.605Z,8.92
2017-10-11T21:31:00.532Z,8.86
2017-10-11T21:33:30.376Z,8.94
2017-10-11T21:36:00.126Z,8.85
2017-10-11T21:38:29.932Z,8.80
2017-10-11T21:41:00.321Z,8.73
2017-10-11T21:43:30.099Z,8.69
2017-10-11T21:45:59.759Z,8.64
2017-10-11T21:48:29.526Z,8.71
2017-10-11T21:50:59.202Z,8.74
2017-10-11T21:53:29.256Z,8.70
2017-10-11T21:55:59.051Z,8.61
2017-10-11T21:58:28.710Z,8.56
2017-10-11T22:00:57.928Z,8.61
2017-10-11T22:03:27.989Z,8.62
2017-10-11T22:05:57.619Z,8.58
2017-10-11T22:08:27.231Z,8.51
2017-10-11T22:10:56.801Z,8.50
2017-10-11T22:13:26.431Z,8.44
2017-10-11T22:15:56.053Z,8.39
2017-10-11T22:18:25.464Z,8.40
2017-10-11T22:20:55.079Z,8.36
2017-10-11T22:23:24.683Z,8.34
2017-10-11T22:25:54.295Z,8.31
2017-10-11T22:28:23.949Z,8.27
2017-10-11T22:30:53.568Z,8.25
2017-10-11T22:33:23.207Z,8.24
2017-10-11T22:35:52.869Z,8.23
2017-10-11T22:38:22.815Z,8.30
2017-10-11T22:40:52.445Z,8.35
2017-10-11T22:43:22.087Z,8.34
2017-10-11T22:45:51.698Z,8.28
2017-10-11T22:48:21.377Z,8.27
2017-10-11T22:50:51.080Z,8.16
2017-10-11T22:53:20.728Z,8.33
2017-10-11T22:55:50.293Z,8.27
2017-10-11T22:58:19.960Z,8.19
2017-10-11T23:00:49.677Z,8.12
2017-10-11T23:03:19.529Z,8.05
2017-10-11T23:05:49.454Z,8.03
2017-10-11T23:08:19.234Z,8.05
2017-10-11T23:10:49.032Z,8.09
2017-10-11T23:13:18.663Z,7.99
2017-10-11T23:15:48.502Z,7.91
2017-10-11T23:18:18.209Z,7.85
2017-10-11T23:20:48.032Z,7.81
2017-10-11T23:23:17.908Z,7.74
2017-10-11T23:25:47.798Z,7.72
2017-10-11T23:28:17.738Z,7.76
2017-10-11T23:30:47.691Z,7.73
2017-10-11T23:33:17.613Z,7.81
2017-10-11T23:35:47.482Z,7.79
2017-10-11T23:38:17.391Z,7.73
2017-10-11T23:40:47.219Z,7.66
2017-10-11T23:43:17.062Z,7.64
2017-10-11T23:45:46.930Z,7.78
2017-10-11T23:48:16.588Z,7.75
2017-10-11T23:50:46.544Z,7.84
2017-10-11T23:53:16.231Z,7.81
2017-10-11T23:55:46.092Z,7.75
2017-10-11T23:58:16.037Z,7.66
